Time;durP1;ratioP1;P1;durP2;ratioP2;P2;SDS_P1;SDS_P2;PMS_P1;PMS_P2;Temp;Humidity;BMP_temperature;BMP_pressure;BME280_temperature;BME280_humidity;BME280_pressure;Samples;Min_cycle;Max_cycle;Signal;HPM_P1;HPM_P2
2023/10/13 00:00:40;;;;;;;2.70;1.30;;;;;;;6.93;100.00;100660.00;109236;1254;75103;-53
2023/10/13 00:03:15;;;;;;;4.80;1.70;;;;;;;6.93;100.00;100656.62;109239;1254;67241;-53
2023/10/13 00:05:43;;;;;;;3.60;1.50;;;;;;;6.90;100.00;100653.17;109223;1253;72754;-53
2023/10/13 00:08:11;;;;;;;4.20;1.70;;;;;;;6.92;100.00;100645.11;109042;1253;60930;-53
2023/10/13 00:10:39;;;;;;;3.50;1.40;;;;;;;6.91;100.00;100643.59;109213;1254;60129;-53
2023/10/13 00:13:12;;;;;;;3.50;1.50;;;;;;;6.89;100.00;100649.31;109185;1253;73781;-53
2023/10/13 00:15:59;;;;;;;4.90;1.30;;;;;;;6.86;100.00;100645.45;109239;1254;66829;-54
2023/10/13 00:18:34;;;;;;;4.60;1.40;;;;;;;6.83;100.00;100641.63;109234;1252;72689;-53
2023/10/13 00:24:05;;;;;;;2.70;1.20;;;;;;;6.78;100.00;100641.23;108845;1253;241804;-53
2023/10/13 00:26:36;;;;;;;4.50;1.50;;;;;;;6.75;100.00;100638.73;109236;1253;74731;-54
2023/10/13 00:31:40;;;;;;;6.50;1.90;;;;;;;6.73;100.00;100638.27;109231;1253;72795;-53
2023/10/13 00:34:20;;;;;;;5.20;1.80;;;;;;;6.72;100.00;100637.86;109203;1254;59484;-53
2023/10/13 00:39:36;;;;;;;3.20;1.20;;;;;;;6.73;100.00;100633.79;109291;1253;74729;-53
2023/10/13 00:42:08;;;;;;;2.70;1.40;;;;;;;6.75;100.00;100630.73;109300;1254;65834;-53
2023/10/13 00:44:41;;;;;;;;;;;;;;;6.75;100.00;100624.09;109215;1253;72788;-54
2023/10/13 00:47:22;;;;;;;3.20;1.50;;;;;;;6.78;100.00;100624.46;109222;1254;61142;-53
2023/10/13 00:49:51;;;;;;;2.80;1.20;;;;;;;6.82;100.00;100625.96;109245;1252;59027;-53
2023/10/13 00:52:18;;;;;;;3.10;1.10;;;;;;;6.85;100.00;100628.34;109162;1254;72807;-53
2023/10/13 00:54:46;;;;;;;2.90;1.40;;;;;;;6.87;100.00;100627.55;109258;1253;65643;-53
2023/10/13 00:57:26;;;;;;;4.40;1.70;;;;;;;6.92;100.00;100626.29;109187;1254;72748;-53
2023/10/13 00:59:54;;;;;;;3.60;1.50;;;;;;;6.97;100.00;100625.88;109263;1253;61682;-53
2023/10/13 01:05:09;;;;;;;4.30;1.50;;;;;;;7.14;100.00;100619.91;109159;1253;73720;-53
2023/10/13 01:07:38;;;;;;;4.90;1.90;;;;;;;7.22;100.00;100620.70;109157;1254;65667;-53
2023/10/13 01:10:13;;;;;;;3.70;1.40;;;;;;;7.29;100.00;100620.55;109115;1253;71384;-53
2023/10/13 01:12:42;;;;;;;3.10;1.60;;;;;;;7.35;100.00;100616.58;109158;1254;60459;-53
2023/10/13 01:15:11;;;;;;;4.40;1.60;;;;;;;7.45;100.00;100609.41;109182;1253;60029;-53
2023/10/13 01:17:38;;;;;;;4.30;1.40;;;;;;;7.51;100.00;100607.40;109157;1254;74642;-55
2023/10/13 01:20:07;;;;;;;4.90;1.70;;;;;;;7.56;100.00;100608.59;109096;1253;65699;-54
2023/10/13 01:22:36;;;;;;;3.40;1.20;;;;;;;7.63;100.00;100606.23;109228;1253;71688;-53
2023/10/13 01:25:06;;;;;;;3.90;1.40;;;;;;;7.67;100.00;100609.61;109243;1253;60113;-53
2023/10/13 01:27:38;;;;;;;4.40;1.50;;;;;;;7.68;100.00;100608.00;109195;1253;60502;-53
2023/10/13 01:30:13;;;;;;;3.20;1.60;;;;;;;7.66;100.00;100607.64;109271;1253;72749;-53
2023/10/13 01:32:45;;;;;;;3.80;1.40;;;;;;;7.64;100.00;100604.58;109082;1254;66959;-53
2023/10/13 01:35:13;;;;;;;3.80;1.60;;;;;;;7.63;100.00;100605.03;109305;1253;72658;-53
2023/10/13 01:37:40;;;;;;;2.90;1.50;;;;;;;7.60;100.00;100602.16;109260;1253;58851;-53
2023/10/13 01:40:09;;;;;;;2.80;1.40;;;;;;;7.59;100.00;100600.09;109370;1253;59126;-53
2023/10/13 01:42:36;;;;;;;4.30;1.70;;;;;;;7.55;100.00;100598.31;109275;1254;73396;-54
2023/10/13 01:45:07;;;;;;;2.80;1.30;;;;;;;7.52;100.00;100599.83;109370;1253;66947;-53
2023/10/13 01:47:35;;;;;;;4.20;1.50;;;;;;;7.49;100.00;100605.84;109337;1253;72710;-53
2023/10/13 01:50:13;;;;;;;3.50;1.10;;;;;;;7.47;100.00;100604.90;109356;1253;60231;-53
2023/10/13 01:52:43;;;;;;;3.80;1.50;;;;;;;7.45;100.00;100609.52;109361;1253;60127;-53
2023/10/13 01:55:12;;;;;;;3.50;1.20;;;;;;;7.43;100.00;100612.52;109051;1253;74722;-54
2023/10/13 01:57:41;;;;;;;3.70;1.20;;;;;;;7.43;100.00;100609.60;109206;1253;66392;-53
2023/10/13 02:00:18;;;;;;;3.10;1.10;;;;;;;7.42;100.00;100609.71;109224;1253;71448;-54
2023/10/13 02:02:49;;;;;;;3.00;1.40;;;;;;;7.41;100.00;100607.96;109292;1253;60614;-53
2023/10/13 02:05:18;;;;;;;3.40;1.30;;;;;;;7.43;100.00;100599.09;109136;1253;60009;-53
2023/10/13 02:07:45;;;;;;;3.30;1.30;;;;;;;7.45;100.00;100596.77;109254;1253;74796;-53
2023/10/13 02:10:13;;;;;;;4.00;1.50;;;;;;;7.47;100.00;100599.48;109291;1253;67418;-53
2023/10/13 02:12:43;;;;;;;3.50;1.50;;;;;;;7.51;100.00;100598.42;109271;1254;72747;-53
2023/10/13 02:15:26;;;;;;;3.80;1.50;;;;;;;7.54;100.00;100595.71;109213;1253;60757;-53
2023/10/13 02:17:54;;;;;;;3.70;1.30;;;;;;;7.58;100.00;100598.29;109273;1254;60566;-53
2023/10/13 02:20:25;;;;;;;3.00;1.00;;;;;;;7.60;100.00;100597.52;109343;1253;74908;-53
2023/10/13 02:22:52;;;;;;;2.70;1.30;;;;;;;7.63;100.00;100594.98;109249;1253;65792;-54
2023/10/13 02:25:35;;;;;;;3.90;1.60;;;;;;;7.65;100.00;100598.75;109245;1253;72668;-53
2023/10/13 02:28:08;;;;;;;6.10;1.30;;;;;;;7.68;100.00;100597.27;109283;1252;61779;-53
2023/10/13 02:30:48;;;;;;;2.80;1.40;;;;;;;7.70;100.00;100596.17;109273;1253;60051;-55
2023/10/13 02:33:29;;;;;;;7.10;2.30;;;;;;;7.72;100.00;100597.48;109121;1252;74862;-54
2023/10/13 02:35:58;;;;;;;6.30;3.00;;;;;;;7.75;100.00;100594.48;109247;1254;66937;-54
2023/10/13 02:39:08;;;;;;;5.10;2.00;;;;;;;7.75;100.00;100596.11;109294;1253;71450;-54
2023/10/13 02:41:27;;;;;;;7.00;3.40;;;;;;;7.77;100.00;100586.64;109131;1253;60481;-53
2023/10/13 02:43:55;;;;;;;4.50;1.80;;;;;;;7.79;100.00;100589.23;109357;1253;58964;-54
2023/10/13 02:46:23;;;;;;;5.00;1.10;;;;;;;7.79;100.00;100590.92;109282;1253;74717;-53
2023/10/13 02:48:55;;;;;;;3.10;1.40;;;;;;;7.78;100.00;100597.17;109255;1253;65658;-53
2023/10/13 02:51:31;;;;;;;4.70;1.50;;;;;;;7.81;100.00;100601.28;109228;1253;72739;-53
2023/10/13 02:54:02;;;;;;;4.00;1.50;;;;;;;7.84;100.00;100602.68;109109;1253;62107;-53
2023/10/13 02:56:30;;;;;;;4.30;1.40;;;;;;;7.85;100.00;100600.59;109352;1251;60037;-53
2023/10/13 02:59:04;;;;;;;3.00;1.30;;;;;;;7.83;100.00;100586.33;109337;1251;73370;-53
2023/10/13 03:01:34;;;;;;;4.50;1.60;;;;;;;7.79;100.00;100588.46;109428;1251;66797;-56
2023/10/13 03:04:03;;;;;;;4.00;1.50;;;;;;;7.76;100.00;100589.19;109232;1253;72252;-53
2023/10/13 03:06:33;;;;;;;3.80;1.40;;;;;;;7.71;100.00;100591.89;109122;1253;60436;-53
2023/10/13 03:09:21;;;;;;;4.30;1.50;;;;;;;7.67;100.00;100593.51;109255;1253;59323;-53
2023/10/13 03:11:50;;;;;;;3.80;1.50;;;;;;;7.62;100.00;100593.89;109273;1254;74670;-54
2023/10/13 03:14:31;;;;;;;3.50;1.50;;;;;;;7.57;100.00;100586.41;109259;1251;66904;-53
2023/10/13 03:17:02;;;;;;;4.80;1.40;;;;;;;7.53;100.00;100584.88;109460;1253;71451;-53
2023/10/13 03:19:33;;;;;;;3.50;1.20;;;;;;;7.52;100.00;100584.61;109484;1251;60477;-54
2023/10/13 03:22:11;;;;;;;30.60;20.50;;;;;;;7.51;100.00;100584.02;109493;1251;58963;-53
2023/10/13 03:24:46;;;;;;;15.80;10.00;;;;;;;7.51;100.00;100587.11;109434;1251;73439;-54
2023/10/13 03:27:22;;;;;;;7.60;4.60;;;;;;;7.50;100.00;100592.95;109429;1251;67065;-54
2023/10/13 03:29:56;;;;;;;5.80;2.90;;;;;;;7.49;100.00;100594.84;109395;1253;72638;-53
2023/10/13 03:32:26;;;;;;;7.50;2.30;;;;;;;7.49;100.00;100590.96;109460;1251;59973;-53
2023/10/13 03:35:10;;;;;;;3.80;2.00;;;;;;;7.49;100.00;100588.00;109413;1251;60661;-53
2023/10/13 03:37:38;;;;;;;12.30;5.40;;;;;;;7.49;100.00;100588.61;109468;1251;74725;-53
2023/10/13 03:40:56;;;;;;;9.70;5.20;;;;;;;7.49;100.00;100590.52;109466;1251;67408;-54
2023/10/13 03:43:12;;;;;;;7.50;3.10;;;;;;;7.49;100.00;100596.01;109321;1251;72761;-54
2023/10/13 03:45:43;;;;;;;5.20;2.40;;;;;;;7.50;100.00;100593.45;109446;1251;59149;-53
2023/10/13 03:48:51;;;;;;;7.50;2.60;;;;;;;7.52;100.00;100596.57;109451;1251;59924;-53
2023/10/13 03:51:03;;;;;;;6.20;2.10;;;;;;;7.54;100.00;100599.96;109456;1251;73738;-53
2023/10/13 03:53:33;;;;;;;5.00;1.90;;;;;;;7.59;100.00;100596.41;109416;1251;65698;-53
2023/10/13 03:56:26;;;;;;;7.10;2.30;;;;;;;7.63;100.00;100596.87;109447;1251;73400;-53
2023/10/13 03:59:35;;;;;;;4.70;1.50;;;;;;;7.69;100.00;100593.48;109460;1251;58885;-55
2023/10/13 04:01:58;;;;;;;6.80;2.60;;;;;;;7.74;100.00;100591.39;109399;1251;60049;-53
2023/10/13 04:17:43;;;;;;;4.40;2.00;;;;;;;8.10;100.00;100585.02;109281;1253;74802;-53
2023/10/13 04:25:35;;;;;;;6.50;2.10;;;;;;;8.28;100.00;100594.40;109303;1254;60104;-53
2023/10/13 04:33:35;;;;;;;6.50;2.50;;;;;;;8.63;100.00;100599.23;109268;1253;65950;-55
2023/10/13 04:36:14;;;;;;;5.80;2.50;;;;;;;8.76;100.00;100592.95;109402;1253;72668;-54
2023/10/13 04:41:31;;;;;;;6.10;2.00;;;;;;;8.99;100.00;100588.39;109285;1253;60191;-53
2023/10/13 04:44:05;;;;;;;4.00;1.90;;;;;;;9.09;100.00;100589.61;109279;1253;72799;-53
2023/10/13 04:46:39;;;;;;;6.40;2.10;;;;;;;9.19;100.00;100590.76;109239;1253;66085;-54
2023/10/13 04:49:25;;;;;;;4.70;1.70;;;;;;;9.30;100.00;100594.83;109279;1253;70955;-54
2023/10/13 04:57:47;;;;;;;6.10;2.80;;;;;;;9.59;100.00;100590.29;108810;1253;74700;-54
2023/10/13 06:30:04;;;;;;;8.70;4.60;;;;;;;13.62;100.00;100528.17;109443;1251;60099;-56
2023/10/13 06:32:33;;;;;;;9.50;4.70;;;;;;;13.58;100.00;100526.81;109437;1251;74132;-56
2023/10/13 06:35:18;;;;;;;10.20;6.30;;;;;;;13.53;100.00;100525.87;109459;1251;66815;-53
2023/10/13 06:37:46;;;;;;;13.20;6.30;;;;;;;13.50;100.00;100525.45;109375;1251;70919;-55
2023/10/13 06:40:25;;;;;;;6.80;3.30;;;;;;;13.51;100.00;100525.46;109401;1253;59269;-56
2023/10/13 06:43:12;;;;;;;14.70;8.50;;;;;;;13.49;100.00;100530.02;109434;1251;59012;-57
2023/10/13 06:45:41;;;;;;;27.80;17.40;;;;;;;13.47;100.00;100535.52;109309;1251;73795;-56
2023/10/13 06:48:11;;;;;;;7.40;3.90;;;;;;;13.45;100.00;100535.98;109422;1253;65632;-55
2023/10/13 06:50:41;;;;;;;8.10;5.10;;;;;;;13.42;100.00;100542.11;109441;1251;72757;-55
2023/10/13 06:53:12;;;;;;;10.20;4.50;;;;;;;13.38;100.00;100540.99;109430;1251;60200;-57
2023/10/13 06:55:40;;;;;;;6.50;3.30;;;;;;;13.36;100.00;100537.01;109247;1251;60830;-55
2023/10/13 06:58:13;;;;;;;8.00;3.60;;;;;;;13.37;100.00;100534.42;109403;1253;73526;-55
2023/10/13 07:00:52;;;;;;;9.70;4.20;;;;;;;13.46;100.00;100539.70;109386;1253;65760;-55
2023/10/13 07:03:21;;;;;;;7.70;4.30;;;;;;;13.63;100.00;100543.76;109317;1253;72417;-55
2023/10/13 07:05:49;;;;;;;8.20;4.30;;;;;;;13.86;100.00;100540.77;109262;1253;59414;-55
2023/10/13 07:08:20;;;;;;;10.40;5.30;;;;;;;14.10;100.00;100537.00;109238;1253;59222;-55
2023/10/13 07:11:13;;;;;;;10.30;5.80;;;;;;;14.34;100.00;100537.87;109246;1253;74753;-57
2023/10/13 07:13:49;;;;;;;7.10;3.80;;;;;;;14.54;100.00;100532.14;109242;1253;66871;-55
2023/10/13 07:16:18;;;;;;;6.80;3.60;;;;;;;14.64;100.00;100530.52;109209;1253;73558;-55
2023/10/13 07:19:04;;;;;;;10.30;3.40;;;;;;;14.69;100.00;100536.42;109143;1254;60145;-55
2023/10/13 07:21:34;;;;;;;3.80;2.10;;;;;;;14.71;100.00;100534.33;109294;1253;60133;-55
2023/10/13 07:24:08;;;;;;;5.10;2.60;;;;;;;14.72;100.00;100533.55;109291;1254;73441;-57
2023/10/13 07:26:45;;;;;;;5.50;2.40;;;;;;;14.82;100.00;100536.13;109476;1251;66038;-55
2023/10/13 07:29:14;;;;;;;6.20;2.40;;;;;;;14.97;100.00;100532.02;109441;1251;72733;-55
2023/10/13 07:31:44;;;;;;;8.00;3.20;;;;;;;15.11;100.00;100535.45;109423;1251;58870;-55
2023/10/13 07:34:24;;;;;;;5.50;2.80;;;;;;;15.24;100.00;100533.91;109385;1251;60586;-55
2023/10/13 07:36:59;;;;;;;4.40;2.00;;;;;;;15.36;100.00;100535.81;109416;1251;74661;-55
2023/10/13 07:39:28;;;;;;;6.50;3.00;;;;;;;15.45;100.00;100533.72;109232;1253;67135;-56
2023/10/13 07:42:05;;;;;;;7.10;3.10;;;;;;;15.51;100.00;100530.77;109211;1253;71686;-57
2023/10/13 07:44:33;;;;;;;5.60;3.40;;;;;;;15.55;100.00;100533.02;109229;1253;59180;-56
2023/10/13 07:47:07;;;;;;;6.40;2.60;;;;;;;15.57;100.00;100535.49;109228;1253;60070;-55
2023/10/13 07:49:39;;;;;;;6.20;2.60;;;;;;;15.56;100.00;100533.30;109209;1253;73452;-57
2023/10/13 07:57:35;;;;;;;6.40;2.30;;;;;;;15.53;100.00;100531.09;109430;1251;60061;-55
2023/10/13 08:00:10;;;;;;;6.20;2.10;;;;;;;15.62;100.00;100534.58;109459;1251;60083;-55
2023/10/13 08:02:51;;;;;;;12.30;7.20;;;;;;;15.70;100.00;100533.96;109371;1251;74698;-57
2023/10/13 08:05:29;;;;;;;6.90;3.90;;;;;;;15.78;100.00;100535.17;109343;1253;66785;-56
2023/10/13 08:07:57;;;;;;;5.90;2.70;;;;;;;15.87;100.00;100532.05;109256;1253;72712;-55
2023/10/13 08:10:29;;;;;;;7.10;2.40;;;;;;;15.92;100.00;100530.88;109204;1253;59289;-54
2023/10/13 08:12:58;;;;;;;6.80;2.90;;;;;;;15.97;100.00;100530.02;109412;1253;60081;-56
2023/10/13 08:15:32;;;;;;;8.30;4.20;;;;;;;16.05;100.00;100534.41;109248;1253;74761;-55
2023/10/13 08:18:17;;;;;;;7.60;3.10;;;;;;;16.12;100.00;100538.36;109291;1253;65777;-56
2023/10/13 08:20:45;;;;;;;5.20;2.50;;;;;;;16.15;100.00;100540.27;109420;1253;72795;-56
2023/10/13 08:23:20;;;;;;;4.00;1.70;;;;;;;16.14;100.00;100536.09;109284;1255;59051;-56
2023/10/13 08:31:26;;;;;;;4.60;1.60;;;;;;;16.24;100.00;100534.40;109246;1253;65732;-55
2023/10/13 08:34:05;;;;;;;4.70;1.90;;;;;;;16.28;100.00;100539.11;109321;1253;72745;-55
2023/10/13 08:36:37;;;;;;;6.90;2.80;;;;;;;16.36;100.00;100535.01;109307;1253;60157;-55
2023/10/13 08:39:58;;;;;;;4.20;2.20;;;;;;;16.44;100.00;100535.10;109227;1253;60213;-55
2023/10/13 08:42:11;;;;;;;5.40;2.30;;;;;;;16.48;100.00;100538.40;109399;1252;74870;-54
2023/10/13 08:44:45;;;;;;;7.90;3.10;;;;;;;16.46;100.00;100540.11;109160;1253;66365;-54
2023/10/13 08:47:17;;;;;;;7.20;2.80;;;;;;;16.43;100.00;100543.81;109159;1253;72726;-55
2023/10/13 08:49:50;;;;;;;7.40;2.90;;;;;;;16.39;100.00;100553.04;109116;1253;61133;-56
2023/10/13 08:56:02;;;;;;;9.20;3.30;;;;;;;16.38;100.00;100547.83;109159;1253;74709;-55
2023/10/13 08:57:53;;;;;;;6.60;2.90;;;;;;;16.41;100.00;100544.48;109265;1253;66327;-55
2023/10/13 09:00:28;;;;;;;8.10;3.40;;;;;;;16.43;100.00;100545.06;109197;1253;72700;-57
2023/10/13 09:02:59;;;;;;;8.20;3.50;;;;;;;16.46;100.00;100540.75;109205;1254;59006;-55
2023/10/13 09:05:42;;;;;;;5.50;3.00;;;;;;;16.46;100.00;100539.95;109397;1251;59356;-55
2023/10/13 09:08:16;;;;;;;6.70;3.00;;;;;;;16.42;100.00;100541.48;109345;1251;75264;-55
2023/10/13 09:11:10;;;;;;;4.60;2.10;;;;;;;16.45;100.00;100541.34;109434;1251;66916;-55
2023/10/13 09:13:46;;;;;;;6.10;2.20;;;;;;;16.47;100.00;100550.50;109381;1251;71359;-56
2023/10/13 09:16:50;;;;;;;6.70;3.10;;;;;;;16.47;100.00;100551.35;109403;1254;60135;-55
2023/10/13 09:19:04;;;;;;;6.60;3.10;;;;;;;16.48;100.00;100558.48;109362;1251;61106;-56
2023/10/13 09:24:21;;;;;;;10.20;5.30;;;;;;;16.48;100.00;100563.02;109430;1253;69039;-56
2023/10/13 09:26:55;;;;;;;12.60;6.10;;;;;;;16.46;100.00;100557.00;109333;1254;72663;-55
2023/10/13 09:29:24;;;;;;;10.60;5.70;;;;;;;16.39;100.00;100552.32;109111;1253;60142;-55
2023/10/13 09:32:03;;;;;;;10.40;6.10;;;;;;;16.34;100.00;100550.37;109400;1253;58944;-54
2023/10/13 09:34:33;;;;;;;12.60;8.40;;;;;;;16.29;100.00;100541.48;109328;1253;75216;-55
2023/10/13 09:37:03;;;;;;;21.90;15.30;;;;;;;16.23;100.00;100526.23;109415;1253;65634;-54
2023/10/13 09:39:40;;;;;;;51.70;26.90;;;;;;;16.15;100.00;100540.33;109409;1251;73744;-55
2023/10/13 09:42:10;;;;;;;18.40;10.90;;;;;;;16.10;100.00;100540.16;109186;1254;63161;-58
2023/10/13 09:44:40;;;;;;;10.50;7.10;;;;;;;16.06;100.00;100542.61;109434;1251;60076;-53
2023/10/13 09:47:17;;;;;;;7.90;5.20;;;;;;;16.02;100.00;100546.33;109390;1251;77799;-54
2023/10/13 09:49:45;;;;;;;9.60;5.10;;;;;;;15.98;100.00;100542.70;109473;1253;67076;-56
2023/10/13 09:52:20;;;;;;;11.40;6.10;;;;;;;15.96;100.00;100524.27;109377;1253;71869;-56
2023/10/13 09:54:59;;;;;;;20.50;10.50;;;;;;;15.92;100.00;100515.89;109147;1260;60194;-54
2023/10/13 09:57:34;;;;;;;15.00;6.40;;;;;;;15.92;100.00;100526.15;109234;1253;62153;-55
2023/10/13 10:03:06;;;;;;;12.60;7.50;;;;;;;16.07;100.00;100514.77;109203;1252;69345;-56
2023/10/13 10:05:35;;;;;;;14.90;9.00;;;;;;;16.16;100.00;100508.80;109232;1253;70885;-56
2023/10/13 10:08:04;;;;;;;13.60;9.00;;;;;;;16.26;100.00;100505.34;109197;1252;62179;-54
2023/10/13 10:10:46;;;;;;;11.60;6.50;;;;;;;16.37;100.00;100503.35;109234;1252;60269;-56
2023/10/13 10:13:20;;;;;;;11.10;5.30;;;;;;;16.48;100.00;100495.56;109348;1253;77238;-56
2023/10/13 10:15:48;;;;;;;11.00;6.20;;;;;;;16.57;100.00;100487.56;109085;1253;65192;-55
2023/10/13 10:18:25;;;;;;;11.50;6.80;;;;;;;16.61;100.00;100478.37;109162;1253;74771;-54
2023/10/13 10:21:07;;;;;;;12.30;6.80;;;;;;;16.61;100.00;100477.59;109207;1253;60108;-56
2023/10/13 10:23:43;;;;;;;11.80;7.10;;;;;;;16.61;100.00;100482.48;109180;1252;59464;-55
2023/10/13 10:26:15;;;;;;;9.20;5.30;;;;;;;16.63;100.00;100475.46;109227;1257;75118;-55
2023/10/13 10:28:43;;;;;;;11.50;5.90;;;;;;;16.64;100.00;100483.16;109356;1251;68069;-55
2023/10/13 10:31:19;;;;;;;9.80;5.60;;;;;;;16.69;100.00;100493.86;109386;1251;73154;-53
2023/10/13 10:33:50;;;;;;;9.90;6.20;;;;;;;16.74;100.00;100496.13;109432;1251;60014;-53
2023/10/13 10:36:30;;;;;;;9.50;5.70;;;;;;;16.75;100.00;100493.93;109475;1251;58940;-54
2023/10/13 10:39:04;;;;;;;9.40;5.70;;;;;;;16.70;100.00;100493.16;109365;1251;77407;-54
2023/10/13 10:42:15;;;;;;;25.00;15.80;;;;;;;16.67;100.00;100496.73;109496;1251;67010;-55
2023/10/13 10:44:33;;;;;;;16.00;9.00;;;;;;;16.62;100.00;100498.72;109420;1251;72758;-55
2023/10/13 10:47:11;;;;;;;14.10;9.30;;;;;;;16.57;100.00;100492.77;109453;1254;63081;-55
2023/10/13 10:49:41;;;;;;;26.60;16.90;;;;;;;16.51;100.00;100488.30;109422;1251;62131;-57
2023/10/13 10:52:14;;;;;;;18.50;12.20;;;;;;;16.44;100.00;100486.48;109423;1251;74693;-56
2023/10/13 10:54:44;;;;;;;14.70;9.80;;;;;;;16.37;100.00;100479.95;109454;1251;67369;-56
2023/10/13 10:57:11;;;;;;;12.50;7.10;;;;;;;16.30;100.00;100488.52;109420;1251;72721;-55
2023/10/13 10:59:39;;;;;;;12.90;7.30;;;;;;;16.20;100.00;100500.73;109222;1253;58850;-56
2023/10/13 11:02:08;;;;;;;12.80;8.40;;;;;;;16.13;100.00;100521.41;109393;1253;60403;-55
2023/10/13 11:05:10;;;;;;;15.40;9.30;;;;;;;16.08;100.00;100531.61;109389;1252;74708;-55
2023/10/13 11:07:31;;;;;;;14.90;9.80;;;;;;;16.04;100.00;100529.33;109369;1251;69304;-56
2023/10/13 11:10:26;;;;;;;19.40;12.80;;;;;;;16.04;100.00;100522.14;109474;1251;72473;-55
2023/10/13 11:13:11;;;;;;;23.20;14.60;;;;;;;16.10;100.00;100523.38;109082;1253;59353;-56
2023/10/13 11:15:45;;;;;;;18.60;11.90;;;;;;;16.16;100.00;100521.83;109124;1253;60119;-56
2023/10/13 11:18:20;;;;;;;16.50;10.60;;;;;;;16.20;100.00;100520.03;109153;1253;74685;-59
2023/10/13 11:20:54;;;;;;;14.50;8.70;;;;;;;16.21;100.00;100518.28;109128;1253;67217;-56
2023/10/13 11:23:29;;;;;;;20.20;11.30;;;;;;;16.21;100.00;100519.38;109174;1253;73210;-56
2023/10/13 11:25:58;;;;;;;20.20;11.40;;;;;;;16.21;100.00;100515.98;109207;1253;63015;-55
2023/10/13 11:28:31;;;;;;;17.50;10.60;;;;;;;16.23;100.00;100514.91;109157;1253;58904;-55
2023/10/13 11:30:59;;;;;;;15.00;9.70;;;;;;;16.26;100.00;100522.38;109234;1253;73748;-56
2023/10/13 11:33:28;;;;;;;15.00;9.70;;;;;;;16.31;100.00;100521.45;109208;1252;67128;-55
2023/10/13 11:35:57;;;;;;;12.40;7.90;;;;;;;16.41;100.00;100514.33;109335;1251;71469;-55
2023/10/13 11:41:16;;;;;;;14.10;8.50;;;;;;;16.67;100.00;100518.39;109360;1253;60091;-55
2023/10/13 11:46:13;;;;;;;11.90;6.40;;;;;;;16.87;100.00;100534.08;109300;1253;67038;-55
2023/10/13 11:48:46;;;;;;;11.70;6.50;;;;;;;16.89;100.00;100523.19;109282;1254;72669;-55
2023/10/13 11:51:17;;;;;;;13.80;9.10;;;;;;;16.88;100.00;100523.11;109165;1253;61709;-55
2023/10/13 11:53:47;;;;;;;18.00;12.50;;;;;;;16.84;100.00;100531.02;109141;1253;60103;-55
2023/10/13 11:56:17;;;;;;;16.80;10.90;;;;;;;16.78;100.00;100530.99;109103;1253;73439;-55
2023/10/13 11:58:46;;;;;;;21.20;13.90;;;;;;;16.71;100.00;100534.80;109117;1253;66840;-55
2023/10/13 12:06:46;;;;;;;8.70;4.80;;;;;;;16.52;100.00;100538.12;109191;1253;59033;-55
2023/10/13 12:12:04;;;;;;;11.60;5.90;;;;;;;16.56;100.00;100540.80;108956;1253;67922;-55
2023/10/13 12:14:37;;;;;;;9.80;5.30;;;;;;;16.59;100.00;100541.73;109147;1253;71473;-55
2023/10/13 12:17:10;;;;;;;9.60;5.10;;;;;;;16.63;100.00;100543.45;109099;1253;59285;-58
2023/10/13 12:19:39;;;;;;;10.60;5.00;;;;;;;16.67;100.00;100540.98;109183;1253;60013;-54
2023/10/13 12:22:08;;;;;;;8.10;5.30;;;;;;;16.70;100.00;100539.54;109119;1253;73374;-54
2023/10/13 12:27:18;;;;;;;9.50;5.80;;;;;;;16.70;100.00;100530.55;109125;1253;71343;-56
2023/10/13 12:29:51;;;;;;;11.00;6.50;;;;;;;16.66;100.00;100533.80;109124;1253;60155;-54
2023/10/13 12:32:30;;;;;;;9.60;6.10;;;;;;;16.62;100.00;100529.63;109160;1253;59723;-58
2023/10/13 12:37:49;;;;;;;9.00;5.90;;;;;;;16.51;100.00;100530.52;109202;1253;69970;-54
2023/10/13 12:48:56;;;;;;;10.80;6.00;;;;;;;16.24;100.00;100552.78;109144;1253;74745;-54
2023/10/13 12:54:46;;;;;;;12.30;6.30;;;;;;;16.13;100.00;100564.61;109098;1256;75069;-53
2023/10/13 12:56:56;;;;;;;;;;;;;;;16.10;100.00;100570.04;109158;1253;59594;-54
2023/10/13 12:59:27;;;;;;;13.40;8.00;;;;;;;16.07;100.00;100572.54;109271;1253;59460;-54
2023/10/13 13:01:55;;;;;;;14.80;8.30;;;;;;;16.05;100.00;100571.38;109185;1257;74735;-54
2023/10/13 13:04:25;;;;;;;11.80;7.70;;;;;;;16.04;100.00;100574.66;109133;1253;69004;-54
2023/10/13 13:06:53;;;;;;;17.20;10.00;;;;;;;16.05;100.00;100577.16;109167;1253;73178;-53
2023/10/13 13:09:27;;;;;;;16.20;9.10;;;;;;;16.06;100.00;100582.27;109144;1253;61360;-54
2023/10/13 13:11:57;;;;;;;14.20;9.20;;;;;;;16.07;100.00;100587.27;109141;1253;59953;-54
2023/10/13 13:14:29;;;;;;;16.20;9.50;;;;;;;16.09;100.00;100589.20;109105;1253;77331;-55
2023/10/13 13:17:04;;;;;;;15.80;8.70;;;;;;;16.11;100.00;100586.58;109141;1259;69145;-55
2023/10/13 13:19:36;;;;;;;12.90;8.60;;;;;;;16.10;100.00;100585.64;109149;1253;74276;-55
2023/10/13 13:22:13;;;;;;;11.00;7.30;;;;;;;16.10;100.00;100582.21;109071;1253;61287;-55
2023/10/13 13:24:44;;;;;;;10.40;6.60;;;;;;;16.12;100.00;100583.29;109167;1255;59018;-55
2023/10/13 13:27:19;;;;;;;10.90;6.20;;;;;;;16.11;100.00;100577.95;109241;1253;73410;-55
2023/10/13 13:29:47;;;;;;;8.70;5.40;;;;;;;16.11;100.00;100576.86;109339;1253;66732;-55
2023/10/13 13:32:23;;;;;;;9.90;5.60;;;;;;;16.11;100.00;100575.27;109345;1253;74796;-55
2023/10/13 13:35:05;;;;;;;8.60;5.60;;;;;;;16.14;100.00;100578.81;109403;1253;60940;-55
2023/10/13 13:37:33;;;;;;;12.80;5.90;;;;;;;16.14;100.00;100585.57;109327;1253;61519;-55
2023/10/13 13:40:16;;;;;;;13.00;6.80;;;;;;;16.15;100.00;100589.30;109204;1253;75710;-56
2023/10/13 13:42:44;;;;;;;10.40;5.50;;;;;;;16.17;100.00;100586.20;109368;1253;69318;-55
2023/10/13 13:45:27;;;;;;;9.90;5.80;;;;;;;16.19;100.00;100590.33;109135;1253;75850;-55
2023/10/13 13:47:55;;;;;;;11.80;6.40;;;;;;;16.19;100.00;100593.75;109343;1253;59987;-54
2023/10/13 13:50:25;;;;;;;9.90;5.80;;;;;;;16.18;100.00;100595.59;109402;1253;59997;-54
2023/10/13 13:52:55;;;;;;;8.20;4.90;;;;;;;16.16;100.00;100598.83;109281;1253;75989;-55
2023/10/13 13:55:24;;;;;;;8.70;4.80;;;;;;;16.14;100.00;100595.94;109367;1253;67205;-54
2023/10/13 13:57:51;;;;;;;12.60;5.90;;;;;;;16.13;100.00;100595.37;109220;1254;71440;-56
2023/10/13 14:01:11;;;;;;;10.80;6.10;;;;;;;16.12;100.00;100596.39;109334;1253;62325;-55
2023/10/13 14:03:56;;;;;;;11.10;6.50;;;;;;;16.09;100.00;100600.53;109129;1253;59017;-54
2023/10/13 14:05:56;;;;;;;10.00;6.60;;;;;;;16.03;100.00;100599.88;109144;1254;74675;-55
2023/10/13 14:08:25;;;;;;;23.00;13.60;;;;;;;16.00;100.00;100596.98;109211;1254;65843;-54
2023/10/13 14:13:49;;;;;;;110.70;64.70;;;;;;;15.91;100.00;100600.14;109360;1253;61943;-55
2023/10/13 14:16:17;;;;;;;48.40;31.40;;;;;;;15.88;100.00;100600.60;109233;1254;60081;-55
2023/10/13 14:18:45;;;;;;;24.20;14.20;;;;;;;15.86;100.00;100610.47;109207;1253;74260;-55
2023/10/13 14:21:19;;;;;;;12.90;7.80;;;;;;;15.83;100.00;100615.95;109206;1253;65488;-55
2023/10/13 14:23:47;;;;;;;9.60;5.90;;;;;;;15.79;100.00;100619.92;109267;1254;71468;-55
2023/10/13 14:26:20;;;;;;;8.20;4.80;;;;;;;15.77;100.00;100623.94;109295;1253;61705;-55
2023/10/13 14:29:01;;;;;;;8.00;5.10;;;;;;;15.73;100.00;100626.73;109345;1253;60102;-55
2023/10/13 14:31:30;;;;;;;12.10;6.60;;;;;;;15.68;100.00;100628.09;109285;1253;73364;-56
2023/10/13 14:33:58;;;;;;;12.60;8.70;;;;;;;15.65;100.00;100627.48;109187;1254;65787;-55
2023/10/13 14:36:34;;;;;;;11.60;9.00;;;;;;;15.61;100.00;100630.34;109176;1254;72561;-55
2023/10/13 14:39:04;;;;;;;9.20;7.10;;;;;;;15.57;100.00;100632.17;109160;1255;58918;-55
2023/10/13 14:41:37;;;;;;;10.30;6.40;;;;;;;15.55;100.00;100636.66;109056;1253;60226;-55
2023/10/13 14:44:06;;;;;;;12.10;8.20;;;;;;;15.52;100.00;100637.64;109345;1253;74685;-56